Mill Village, Pennsylvania
Current Conditions -  °F | °C
As of 5:51 PM on Friday 31 Oct 2014 (Local Time) from KERI Reporting Station
Overcast Overcast  
Wind Chill: 45°   Ceiling: 5000
Heat Index: 47°   Visibility: 10mi
Dew Point: 39°   Wind: 5mph
Humidity: 74%   Direction: 140°SE
Pressure: 29.87"   Gusts: NA
Location:  41.88°N, 79.97°W
Report Text: KERI 312151Z 14004KT 10SM OVC050 08/04 A2987 RMK AO2 SLP120 T00830039
Loading
Personal Weather Stations






























Interactive Weather Map New forecast layout! Learn more

10-Day Weather Forecast

Advertisements
Track Severe Weather on mobile